« Back
NWS Peachtree City, Ga » Text Product » MCN Terminal Aerodrome Forecast


Printer-friendly Version
Current Version              Previous Versions:   1  2  3  4  5  6  7  8  9  

Terminal Aerodrome Forecast

515
FTUS42 KFFC 281735
TAFMCN
TAF
KMCN 281735Z 2818/2918 VRB03KT P6SM SKC
     FM290000 00000KT P6SM SKC
     FM291600 19004KT P6SM SCT250=

USA.gov is the U.S. government's official web portal to all federal, state and local government web resources and services.